sensor_id;sensor_type;location;lat;lon;timestamp;P1;durP1;ratioP1;P2;durP2;ratioP2
9524;SDS011;15940;48.734;9.112;2023-12-22T00:02:18;5.40;;;1.87;;
9524;SDS011;15940;48.734;9.112;2023-12-22T00:04:45;3.20;;;1.23;;
9524;SDS011;15940;48.734;9.112;2023-12-22T00:07:12;3.00;;;1.77;;
9524;SDS011;15940;48.734;9.112;2023-12-22T00:09:38;3.13;;;1.77;;
9524;SDS011;15940;48.734;9.112;2023-12-22T00:12:06;7.10;;;2.00;;
9524;SDS011;15940;48.734;9.112;2023-12-22T00:14:33;8.33;;;3.00;;
9524;SDS011;15940;48.734;9.112;2023-12-22T00:17:02;5.77;;;1.77;;
9524;SDS011;15940;48.734;9.112;2023-12-22T00:19:29;5.87;;;1.97;;
9524;SDS011;15940;48.734;9.112;2023-12-22T00:21:56;6.43;;;1.90;;
9524;SDS011;15940;48.734;9.112;2023-12-22T00:24:23;9.47;;;2.40;;
9524;SDS011;15940;48.734;9.112;2023-12-22T00:26:50;5.03;;;1.60;;
9524;SDS011;15940;48.734;9.112;2023-12-22T00:29:18;3.57;;;1.63;;
9524;SDS011;15940;48.734;9.112;2023-12-22T00:31:44;5.83;;;1.60;;
9524;SDS011;15940;48.734;9.112;2023-12-22T00:34:11;4.60;;;1.50;;
9524;SDS011;15940;48.734;9.112;2023-12-22T00:36:38;3.93;;;1.87;;
9524;SDS011;15940;48.734;9.112;2023-12-22T00:39:05;3.80;;;1.70;;
9524;SDS011;15940;48.734;9.112;2023-12-22T00:41:32;5.17;;;1.60;;
9524;SDS011;15940;48.734;9.112;2023-12-22T00:43:59;7.37;;;1.77;;
9524;SDS011;15940;48.734;9.112;2023-12-22T00:46:27;3.80;;;1.70;;
9524;SDS011;15940;48.734;9.112;2023-12-22T00:48:54;2.73;;;1.33;;
9524;SDS011;15940;48.734;9.112;2023-12-22T00:51:20;3.83;;;1.30;;
9524;SDS011;15940;48.734;9.112;2023-12-22T00:53:47;1.57;;;1.00;;
9524;SDS011;15940;48.734;9.112;2023-12-22T00:56:14;3.43;;;1.23;;
9524;SDS011;15940;48.734;9.112;2023-12-22T00:58:41;3.90;;;1.30;;
9524;SDS011;15940;48.734;9.112;2023-12-22T01:01:07;3.00;;;1.43;;
9524;SDS011;15940;48.734;9.112;2023-12-22T01:03:36;1.90;;;1.10;;
9524;SDS011;15940;48.734;9.112;2023-12-22T01:06:03;4.20;;;1.60;;
9524;SDS011;15940;48.734;9.112;2023-12-22T01:08:30;3.73;;;1.17;;
9524;SDS011;15940;48.734;9.112;2023-12-22T01:10:56;3.00;;;1.27;;
9524;SDS011;15940;48.734;9.112;2023-12-22T01:13:23;2.83;;;1.27;;
9524;SDS011;15940;48.734;9.112;2023-12-22T01:15:50;7.90;;;1.60;;
9524;SDS011;15940;48.734;9.112;2023-12-22T01:18:16;5.43;;;1.50;;
9524;SDS011;15940;48.734;9.112;2023-12-22T01:20:44;4.47;;;1.30;;
9524;SDS011;15940;48.734;9.112;2023-12-22T01:23:11;4.77;;;1.70;;
9524;SDS011;15940;48.734;9.112;2023-12-22T01:25:38;3.93;;;1.60;;
9524;SDS011;15940;48.734;9.112;2023-12-22T01:28:05;4.53;;;1.47;;
9524;SDS011;15940;48.734;9.112;2023-12-22T01:30:31;5.40;;;1.67;;
9524;SDS011;15940;48.734;9.112;2023-12-22T01:32:58;2.57;;;1.17;;
9524;SDS011;15940;48.734;9.112;2023-12-22T01:35:25;6.53;;;1.50;;
9524;SDS011;15940;48.734;9.112;2023-12-22T01:37:54;3.23;;;1.10;;
9524;SDS011;15940;48.734;9.112;2023-12-22T01:40:21;5.07;;;1.47;;
9524;SDS011;15940;48.734;9.112;2023-12-22T01:42:48;1.40;;;1.23;;
9524;SDS011;15940;48.734;9.112;2023-12-22T01:45:15;1.50;;;0.80;;
9524;SDS011;15940;48.734;9.112;2023-12-22T01:47:42;4.00;;;1.20;;
9524;SDS011;15940;48.734;9.112;2023-12-22T01:50:09;2.43;;;0.83;;
9524;SDS011;15940;48.734;9.112;2023-12-22T01:52:36;2.70;;;0.63;;
9524;SDS011;15940;48.734;9.112;2023-12-22T01:55:05;1.70;;;0.70;;
9524;SDS011;15940;48.734;9.112;2023-12-22T01:57:32;4.03;;;0.87;;
9524;SDS011;15940;48.734;9.112;2023-12-22T02:00:00;2.00;;;1.00;;
9524;SDS011;15940;48.734;9.112;2023-12-22T02:02:27;0.77;;;0.50;;
9524;SDS011;15940;48.734;9.112;2023-12-22T02:04:54;3.37;;;0.83;;
9524;SDS011;15940;48.734;9.112;2023-12-22T02:07:20;1.07;;;0.60;;
9524;SDS011;15940;48.734;9.112;2023-12-22T02:09:47;3.23;;;0.87;;
9524;SDS011;15940;48.734;9.112;2023-12-22T02:12:15;1.43;;;1.03;;
9524;SDS011;15940;48.734;9.112;2023-12-22T02:14:42;4.30;;;0.87;;
9524;SDS011;15940;48.734;9.112;2023-12-22T02:17:11;3.40;;;1.20;;
9524;SDS011;15940;48.734;9.112;2023-12-22T02:19:47;2.80;;;1.10;;
9524;SDS011;15940;48.734;9.112;2023-12-22T02:22:13;2.53;;;1.07;;
9524;SDS011;15940;48.734;9.112;2023-12-22T02:24:42;1.87;;;0.93;;
9524;SDS011;15940;48.734;9.112;2023-12-22T02:27:10;1.90;;;0.87;;
9524;SDS011;15940;48.734;9.112;2023-12-22T02:29:43;2.80;;;0.87;;
9524;SDS011;15940;48.734;9.112;2023-12-22T02:32:14;1.53;;;1.00;;
9524;SDS011;15940;48.734;9.112;2023-12-22T02:34:45;3.13;;;0.90;;
9524;SDS011;15940;48.734;9.112;2023-12-22T02:37:13;6.97;;;1.23;;
9524;SDS011;15940;48.734;9.112;2023-12-22T02:39:41;2.73;;;1.03;;
9524;SDS011;15940;48.734;9.112;2023-12-22T02:42:08;5.00;;;1.10;;
9524;SDS011;15940;48.734;9.112;2023-12-22T02:44:35;1.17;;;1.00;;
9524;SDS011;15940;48.734;9.112;2023-12-22T02:47:02;2.17;;;0.97;;
9524;SDS011;15940;48.734;9.112;2023-12-22T02:49:29;3.27;;;1.30;;
9524;SDS011;15940;48.734;9.112;2023-12-22T02:51:55;2.23;;;1.00;;
9524;SDS011;15940;48.734;9.112;2023-12-22T02:54:22;2.40;;;1.10;;
9524;SDS011;15940;48.734;9.112;2023-12-22T02:56:50;1.93;;;1.20;;
9524;SDS011;15940;48.734;9.112;2023-12-22T02:59:17;2.43;;;1.10;;
9524;SDS011;15940;48.734;9.112;2023-12-22T03:01:44;2.87;;;0.90;;
9524;SDS011;15940;48.734;9.112;2023-12-22T03:04:10;3.83;;;0.97;;
9524;SDS011;15940;48.734;9.112;2023-12-22T03:06:37;2.80;;;1.40;;
9524;SDS011;15940;48.734;9.112;2023-12-22T03:09:04;3.87;;;1.33;;
9524;SDS011;15940;48.734;9.112;2023-12-22T03:11:31;2.90;;;1.07;;
9524;SDS011;15940;48.734;9.112;2023-12-22T03:13:59;2.90;;;1.13;;
9524;SDS011;15940;48.734;9.112;2023-12-22T03:16:26;4.70;;;1.33;;
9524;SDS011;15940;48.734;9.112;2023-12-22T03:18:52;1.67;;;0.97;;
9524;SDS011;15940;48.734;9.112;2023-12-22T03:21:19;1.47;;;0.93;;
9524;SDS011;15940;48.734;9.112;2023-12-22T03:23:46;5.67;;;1.40;;
9524;SDS011;15940;48.734;9.112;2023-12-22T03:26:13;2.53;;;1.07;;
9524;SDS011;15940;48.734;9.112;2023-12-22T03:28:39;3.90;;;1.00;;
9524;SDS011;15940;48.734;9.112;2023-12-22T03:31:07;2.63;;;1.43;;
9524;SDS011;15940;48.734;9.112;2023-12-22T03:33:34;2.13;;;1.00;;
9524;SDS011;15940;48.734;9.112;2023-12-22T03:36:01;5.97;;;1.27;;
9524;SDS011;15940;48.734;9.112;2023-12-22T03:38:28;1.37;;;0.77;;
9524;SDS011;15940;48.734;9.112;2023-12-22T03:40:55;4.30;;;1.13;;
9524;SDS011;15940;48.734;9.112;2023-12-22T03:43:21;2.77;;;1.10;;
9524;SDS011;15940;48.734;9.112;2023-12-22T03:45:48;2.43;;;1.33;;
9524;SDS011;15940;48.734;9.112;2023-12-22T03:48:16;4.00;;;1.10;;
9524;SDS011;15940;48.734;9.112;2023-12-22T03:50:43;1.80;;;1.10;;
9524;SDS011;15940;48.734;9.112;2023-12-22T03:53:10;2.03;;;1.10;;
9524;SDS011;15940;48.734;9.112;2023-12-22T03:55:36;3.27;;;1.03;;
9524;SDS011;15940;48.734;9.112;2023-12-22T03:58:03;3.03;;;1.13;;
9524;SDS011;15940;48.734;9.112;2023-12-22T04:00:32;5.53;;;1.50;;
9524;SDS011;15940;48.734;9.112;2023-12-22T04:02:59;4.00;;;1.37;;
9524;SDS011;15940;48.734;9.112;2023-12-22T04:05:27;3.93;;;1.60;;
9524;SDS011;15940;48.734;9.112;2023-12-22T04:07:54;6.37;;;1.23;;
9524;SDS011;15940;48.734;9.112;2023-12-22T04:10:21;5.33;;;1.57;;
9524;SDS011;15940;48.734;9.112;2023-12-22T04:12:48;6.10;;;1.63;;
9524;SDS011;15940;48.734;9.112;2023-12-22T04:15:14;2.27;;;1.30;;
9524;SDS011;15940;48.734;9.112;2023-12-22T04:17:41;4.63;;;1.70;;
9524;SDS011;15940;48.734;9.112;2023-12-22T04:20:08;6.87;;;1.77;;
9524;SDS011;15940;48.734;9.112;2023-12-22T04:22:36;3.80;;;1.40;;
9524;SDS011;15940;48.734;9.112;2023-12-22T04:25:03;2.70;;;1.20;;
9524;SDS011;15940;48.734;9.112;2023-12-22T04:27:31;4.63;;;1.70;;
9524;SDS011;15940;48.734;9.112;2023-12-22T04:29:58;3.93;;;1.23;;
9524;SDS011;15940;48.734;9.112;2023-12-22T04:32:24;3.83;;;1.30;;
9524;SDS011;15940;48.734;9.112;2023-12-22T04:34:51;7.03;;;1.67;;
9524;SDS011;15940;48.734;9.112;2023-12-22T04:37:18;3.30;;;1.27;;
9524;SDS011;15940;48.734;9.112;2023-12-22T04:39:46;5.00;;;1.63;;
9524;SDS011;15940;48.734;9.112;2023-12-22T04:42:12;4.60;;;1.20;;
9524;SDS011;15940;48.734;9.112;2023-12-22T04:44:39;5.70;;;1.30;;
9524;SDS011;15940;48.734;9.112;2023-12-22T04:47:06;2.33;;;0.97;;
9524;SDS011;15940;48.734;9.112;2023-12-22T04:49:33;4.03;;;1.30;;
9524;SDS011;15940;48.734;9.112;2023-12-22T04:52:00;2.33;;;1.10;;
9524;SDS011;15940;48.734;9.112;2023-12-22T04:54:26;3.77;;;1.50;;
9524;SDS011;15940;48.734;9.112;2023-12-22T04:56:55;4.03;;;1.20;;
9524;SDS011;15940;48.734;9.112;2023-12-22T04:59:21;9.07;;;1.60;;
9524;SDS011;15940;48.734;9.112;2023-12-22T05:01:48;2.73;;;0.90;;
9524;SDS011;15940;48.734;9.112;2023-12-22T05:04:15;2.60;;;1.30;;
9524;SDS011;15940;48.734;9.112;2023-12-22T05:06:42;5.27;;;1.10;;
9524;SDS011;15940;48.734;9.112;2023-12-22T05:09:10;5.10;;;1.40;;
9524;SDS011;15940;48.734;9.112;2023-12-22T05:11:37;3.43;;;1.50;;
9524;SDS011;15940;48.734;9.112;2023-12-22T05:14:05;5.90;;;1.13;;
9524;SDS011;15940;48.734;9.112;2023-12-22T05:16:32;3.90;;;1.30;;
9524;SDS011;15940;48.734;9.112;2023-12-22T05:18:58;7.90;;;1.60;;
9524;SDS011;15940;48.734;9.112;2023-12-22T05:21:25;6.43;;;1.53;;
9524;SDS011;15940;48.734;9.112;2023-12-22T05:23:53;2.23;;;1.50;;
9524;SDS011;15940;48.734;9.112;2023-12-22T05:26:20;4.67;;;1.50;;
9524;SDS011;15940;48.734;9.112;2023-12-22T05:28:47;4.27;;;1.80;;
9524;SDS011;15940;48.734;9.112;2023-12-22T05:31:15;8.57;;;1.80;;
9524;SDS011;15940;48.734;9.112;2023-12-22T05:33:42;8.40;;;2.10;;
9524;SDS011;15940;48.734;9.112;2023-12-22T05:36:09;6.57;;;2.40;;
9524;SDS011;15940;48.734;9.112;2023-12-22T05:38:37;6.80;;;2.23;;
9524;SDS011;15940;48.734;9.112;2023-12-22T05:41:03;5.37;;;1.83;;
9524;SDS011;15940;48.734;9.112;2023-12-22T05:43:31;4.17;;;1.73;;
9524;SDS011;15940;48.734;9.112;2023-12-22T05:45:58;6.93;;;1.97;;
9524;SDS011;15940;48.734;9.112;2023-12-22T05:48:26;6.43;;;2.60;;
9524;SDS011;15940;48.734;9.112;2023-12-22T05:50:53;6.30;;;1.50;;
9524;SDS011;15940;48.734;9.112;2023-12-22T05:53:20;7.43;;;1.67;;
9524;SDS011;15940;48.734;9.112;2023-12-22T05:55:46;10.93;;;1.90;;
9524;SDS011;15940;48.734;9.112;2023-12-22T05:58:13;5.40;;;1.57;;
9524;SDS011;15940;48.734;9.112;2023-12-22T06:00:40;5.87;;;1.83;;
9524;SDS011;15940;48.734;9.112;2023-12-22T06:03:07;4.27;;;1.87;;
9524;SDS011;15940;48.734;9.112;2023-12-22T06:05:35;8.37;;;2.47;;
9524;SDS011;15940;48.734;9.112;2023-12-22T06:08:02;5.43;;;1.37;;
9524;SDS011;15940;48.734;9.112;2023-12-22T06:10:29;6.53;;;1.80;;
9524;SDS011;15940;48.734;9.112;2023-12-22T06:12:56;6.13;;;1.63;;
9524;SDS011;15940;48.734;9.112;2023-12-22T06:15:23;9.87;;;1.77;;
9524;SDS011;15940;48.734;9.112;2023-12-22T06:17:50;5.20;;;1.80;;
9524;SDS011;15940;48.734;9.112;2023-12-22T06:20:16;7.03;;;2.33;;
9524;SDS011;15940;48.734;9.112;2023-12-22T06:22:44;9.30;;;2.00;;
9524;SDS011;15940;48.734;9.112;2023-12-22T06:25:11;6.13;;;2.00;;
9524;SDS011;15940;48.734;9.112;2023-12-22T06:27:38;6.83;;;1.87;;
9524;SDS011;15940;48.734;9.112;2023-12-22T06:30:05;6.63;;;2.40;;
9524;SDS011;15940;48.734;9.112;2023-12-22T06:32:33;5.77;;;1.67;;
9524;SDS011;15940;48.734;9.112;2023-12-22T06:34:59;9.03;;;1.70;;
9524;SDS011;15940;48.734;9.112;2023-12-22T06:37:27;5.17;;;1.73;;
9524;SDS011;15940;48.734;9.112;2023-12-22T06:39:55;4.83;;;1.80;;
9524;SDS011;15940;48.734;9.112;2023-12-22T06:42:22;5.13;;;1.87;;
9524;SDS011;15940;48.734;9.112;2023-12-22T06:44:49;3.60;;;1.33;;
9524;SDS011;15940;48.734;9.112;2023-12-22T06:47:16;3.60;;;1.50;;
9524;SDS011;15940;48.734;9.112;2023-12-22T06:49:42;3.80;;;1.40;;
9524;SDS011;15940;48.734;9.112;2023-12-22T06:52:09;5.67;;;1.90;;
9524;SDS011;15940;48.734;9.112;2023-12-22T06:54:36;4.50;;;1.37;;
9524;SDS011;15940;48.734;9.112;2023-12-22T06:57:04;4.67;;;1.60;;
9524;SDS011;15940;48.734;9.112;2023-12-22T06:59:31;6.57;;;1.63;;
9524;SDS011;15940;48.734;9.112;2023-12-22T07:01:58;3.37;;;1.50;;
9524;SDS011;15940;48.734;9.112;2023-12-22T07:04:25;4.63;;;1.30;;
9524;SDS011;15940;48.734;9.112;2023-12-22T07:06:52;2.97;;;1.30;;
9524;SDS011;15940;48.734;9.112;2023-12-22T07:09:31;4.80;;;1.30;;
9524;SDS011;15940;48.734;9.112;2023-12-22T07:11:57;12.00;;;2.37;;
9524;SDS011;15940;48.734;9.112;2023-12-22T07:14:26;4.63;;;1.87;;
9524;SDS011;15940;48.734;9.112;2023-12-22T07:16:53;3.27;;;1.70;;
9524;SDS011;15940;48.734;9.112;2023-12-22T07:19:20;6.23;;;1.63;;
9524;SDS011;15940;48.734;9.112;2023-12-22T07:21:47;4.87;;;1.90;;
9524;SDS011;15940;48.734;9.112;2023-12-22T07:24:14;6.23;;;2.10;;
9524;SDS011;15940;48.734;9.112;2023-12-22T07:26:41;8.97;;;1.87;;
9524;SDS011;15940;48.734;9.112;2023-12-22T07:29:09;8.53;;;1.90;;
9524;SDS011;15940;48.734;9.112;2023-12-22T07:31:37;5.03;;;1.77;;
9524;SDS011;15940;48.734;9.112;2023-12-22T07:34:04;6.37;;;1.73;;
9524;SDS011;15940;48.734;9.112;2023-12-22T07:36:30;7.83;;;1.83;;
9524;SDS011;15940;48.734;9.112;2023-12-22T07:38:57;7.07;;;2.10;;
9524;SDS011;15940;48.734;9.112;2023-12-22T07:41:25;6.67;;;1.77;;
9524;SDS011;15940;48.734;9.112;2023-12-22T07:43:52;8.13;;;1.93;;
9524;SDS011;15940;48.734;9.112;2023-12-22T07:46:19;4.60;;;1.67;;
9524;SDS011;15940;48.734;9.112;2023-12-22T07:48:48;5.20;;;1.90;;
9524;SDS011;15940;48.734;9.112;2023-12-22T07:51:15;4.87;;;1.90;;
9524;SDS011;15940;48.734;9.112;2023-12-22T07:53:42;4.23;;;1.60;;
9524;SDS011;15940;48.734;9.112;2023-12-22T07:56:09;5.00;;;1.50;;
9524;SDS011;15940;48.734;9.112;2023-12-22T07:58:36;6.57;;;1.67;;
9524;SDS011;15940;48.734;9.112;2023-12-22T08:01:03;3.63;;;1.70;;
9524;SDS011;15940;48.734;9.112;2023-12-22T08:03:31;10.20;;;1.60;;
9524;SDS011;15940;48.734;9.112;2023-12-22T08:05:59;6.47;;;1.90;;
9524;SDS011;15940;48.734;9.112;2023-12-22T08:08:26;5.43;;;1.83;;
9524;SDS011;15940;48.734;9.112;2023-12-22T08:10:53;5.13;;;1.63;;
9524;SDS011;15940;48.734;9.112;2023-12-22T08:13:20;8.63;;;1.97;;
9524;SDS011;15940;48.734;9.112;2023-12-22T08:15:46;6.67;;;1.80;;
9524;SDS011;15940;48.734;9.112;2023-12-22T08:18:13;9.20;;;1.90;;
9524;SDS011;15940;48.734;9.112;2023-12-22T08:20:40;6.23;;;1.87;;
9524;SDS011;15940;48.734;9.112;2023-12-22T08:23:08;10.13;;;2.83;;
9524;SDS011;15940;48.734;9.112;2023-12-22T08:25:37;8.37;;;2.17;;
9524;SDS011;15940;48.734;9.112;2023-12-22T08:28:04;6.20;;;1.90;;
9524;SDS011;15940;48.734;9.112;2023-12-22T08:30:31;11.80;;;2.10;;
9524;SDS011;15940;48.734;9.112;2023-12-22T08:32:58;5.10;;;2.10;;
9524;SDS011;15940;48.734;9.112;2023-12-22T08:35:25;8.83;;;2.03;;
9524;SDS011;15940;48.734;9.112;2023-12-22T08:37:52;7.87;;;2.10;;
9524;SDS011;15940;48.734;9.112;2023-12-22T08:40:20;11.10;;;2.30;;
9524;SDS011;15940;48.734;9.112;2023-12-22T08:42:50;11.53;;;2.67;;
9524;SDS011;15940;48.734;9.112;2023-12-22T08:45:19;11.07;;;2.83;;
9524;SDS011;15940;48.734;9.112;2023-12-22T08:47:46;6.80;;;1.77;;
9524;SDS011;15940;48.734;9.112;2023-12-22T08:50:13;6.83;;;1.80;;
9524;SDS011;15940;48.734;9.112;2023-12-22T08:52:39;7.47;;;2.37;;
9524;SDS011;15940;48.734;9.112;2023-12-22T08:55:06;7.53;;;1.90;;
9524;SDS011;15940;48.734;9.112;2023-12-22T08:57:34;6.37;;;1.67;;
9524;SDS011;15940;48.734;9.112;2023-12-22T09:00:01;11.17;;;3.20;;
9524;SDS011;15940;48.734;9.112;2023-12-22T09:02:29;6.00;;;2.07;;
9524;SDS011;15940;48.734;9.112;2023-12-22T09:04:56;8.73;;;1.60;;
9524;SDS011;15940;48.734;9.112;2023-12-22T09:07:23;8.53;;;2.47;;
9524;SDS011;15940;48.734;9.112;2023-12-22T09:09:49;5.27;;;1.87;;
9524;SDS011;15940;48.734;9.112;2023-12-22T09:12:16;10.00;;;2.27;;
9524;SDS011;15940;48.734;9.112;2023-12-22T09:14:44;7.97;;;2.13;;
9524;SDS011;15940;48.734;9.112;2023-12-22T09:17:11;11.17;;;2.00;;
9524;SDS011;15940;48.734;9.112;2023-12-22T09:19:37;10.07;;;1.87;;
9524;SDS011;15940;48.734;9.112;2023-12-22T09:22:05;11.17;;;2.43;;
9524;SDS011;15940;48.734;9.112;2023-12-22T09:24:31;10.33;;;2.77;;
9524;SDS011;15940;48.734;9.112;2023-12-22T09:26:58;10.73;;;2.70;;
9524;SDS011;15940;48.734;9.112;2023-12-22T09:29:27;8.93;;;2.13;;
9524;SDS011;15940;48.734;9.112;2023-12-22T09:31:55;10.77;;;2.60;;
9524;SDS011;15940;48.734;9.112;2023-12-22T09:34:25;6.40;;;2.67;;
9524;SDS011;15940;48.734;9.112;2023-12-22T09:36:52;9.07;;;2.10;;
9524;SDS011;15940;48.734;9.112;2023-12-22T09:39:20;12.37;;;2.57;;
9524;SDS011;15940;48.734;9.112;2023-12-22T09:41:47;8.77;;;2.33;;
9524;SDS011;15940;48.734;9.112;2023-12-22T09:44:15;10.73;;;2.47;;
9524;SDS011;15940;48.734;9.112;2023-12-22T09:46:45;7.77;;;2.30;;
9524;SDS011;15940;48.734;9.112;2023-12-22T09:49:14;8.90;;;2.67;;
9524;SDS011;15940;48.734;9.112;2023-12-22T09:51:40;9.77;;;2.80;;
9524;SDS011;15940;48.734;9.112;2023-12-22T09:54:08;13.97;;;2.90;;
9524;SDS011;15940;48.734;9.112;2023-12-22T09:56:36;12.37;;;2.60;;
9524;SDS011;15940;48.734;9.112;2023-12-22T09:59:06;11.57;;;2.43;;
9524;SDS011;15940;48.734;9.112;2023-12-22T10:01:34;9.60;;;2.50;;
9524;SDS011;15940;48.734;9.112;2023-12-22T10:04:01;14.97;;;3.27;;
9524;SDS011;15940;48.734;9.112;2023-12-22T10:06:29;8.77;;;2.53;;
9524;SDS011;15940;48.734;9.112;2023-12-22T10:08:56;7.67;;;2.37;;
9524;SDS011;15940;48.734;9.112;2023-12-22T10:11:23;14.97;;;2.80;;
9524;SDS011;15940;48.734;9.112;2023-12-22T10:13:51;12.63;;;2.90;;
9524;SDS011;15940;48.734;9.112;2023-12-22T10:16:18;11.73;;;2.50;;
9524;SDS011;15940;48.734;9.112;2023-12-22T10:18:45;7.37;;;2.03;;
9524;SDS011;15940;48.734;9.112;2023-12-22T10:21:12;12.70;;;2.80;;
9524;SDS011;15940;48.734;9.112;2023-12-22T10:23:40;14.80;;;2.70;;
9524;SDS011;15940;48.734;9.112;2023-12-22T10:26:07;9.73;;;2.20;;
9524;SDS011;15940;48.734;9.112;2023-12-22T10:28:37;13.73;;;2.50;;
9524;SDS011;15940;48.734;9.112;2023-12-22T10:31:05;12.33;;;2.87;;
9524;SDS011;15940;48.734;9.112;2023-12-22T10:33:32;9.07;;;3.03;;
9524;SDS011;15940;48.734;9.112;2023-12-22T10:35:59;10.60;;;2.93;;
9524;SDS011;15940;48.734;9.112;2023-12-22T10:38:26;10.23;;;3.17;;
9524;SDS011;15940;48.734;9.112;2023-12-22T10:40:55;7.57;;;2.43;;
9524;SDS011;15940;48.734;9.112;2023-12-22T10:43:21;10.23;;;2.60;;
9524;SDS011;15940;48.734;9.112;2023-12-22T10:45:51;7.60;;;2.20;;
9524;SDS011;15940;48.734;9.112;2023-12-22T10:48:18;9.00;;;2.20;;
9524;SDS011;15940;48.734;9.112;2023-12-22T10:50:45;10.13;;;2.13;;
9524;SDS011;15940;48.734;9.112;2023-12-22T10:53:12;6.20;;;2.00;;
9524;SDS011;15940;48.734;9.112;2023-12-22T10:55:39;6.53;;;1.80;;
9524;SDS011;15940;48.734;9.112;2023-12-22T10:58:07;5.97;;;2.03;;
9524;SDS011;15940;48.734;9.112;2023-12-22T11:00:35;5.47;;;1.73;;
9524;SDS011;15940;48.734;9.112;2023-12-22T11:03:04;8.53;;;1.87;;
9524;SDS011;15940;48.734;9.112;2023-12-22T11:05:33;5.63;;;1.90;;
9524;SDS011;15940;48.734;9.112;2023-12-22T11:08:00;9.70;;;1.53;;
9524;SDS011;15940;48.734;9.112;2023-12-22T11:10:28;4.40;;;1.27;;
9524;SDS011;15940;48.734;9.112;2023-12-22T11:12:57;4.53;;;1.83;;
9524;SDS011;15940;48.734;9.112;2023-12-22T11:15:25;3.37;;;1.50;;
9524;SDS011;15940;48.734;9.112;2023-12-22T11:17:53;3.70;;;1.47;;
9524;SDS011;15940;48.734;9.112;2023-12-22T11:20:22;3.67;;;1.20;;
9524;SDS011;15940;48.734;9.112;2023-12-22T11:22:49;4.50;;;1.73;;
9524;SDS011;15940;48.734;9.112;2023-12-22T11:25:16;3.47;;;1.50;;
9524;SDS011;15940;48.734;9.112;2023-12-22T11:27:44;6.43;;;1.60;;
9524;SDS011;15940;48.734;9.112;2023-12-22T11:30:13;4.93;;;1.37;;
9524;SDS011;15940;48.734;9.112;2023-12-22T11:32:41;2.43;;;0.93;;
9524;SDS011;15940;48.734;9.112;2023-12-22T11:35:09;4.63;;;1.57;;
9524;SDS011;15940;48.734;9.112;2023-12-22T11:37:38;2.13;;;1.10;;
9524;SDS011;15940;48.734;9.112;2023-12-22T11:40:06;4.23;;;1.50;;
9524;SDS011;15940;48.734;9.112;2023-12-22T11:42:33;2.60;;;1.23;;
9524;SDS011;15940;48.734;9.112;2023-12-22T11:45:04;4.93;;;1.73;;
9524;SDS011;15940;48.734;9.112;2023-12-22T11:47:32;4.27;;;1.40;;
9524;SDS011;15940;48.734;9.112;2023-12-22T11:50:01;4.73;;;1.43;;
9524;SDS011;15940;48.734;9.112;2023-12-22T11:52:29;3.63;;;1.50;;
9524;SDS011;15940;48.734;9.112;2023-12-22T11:54:57;3.90;;;1.30;;
9524;SDS011;15940;48.734;9.112;2023-12-22T11:57:30;5.17;;;1.40;;
9524;SDS011;15940;48.734;9.112;2023-12-22T12:00:02;3.63;;;1.30;;
9524;SDS011;15940;48.734;9.112;2023-12-22T12:02:32;5.87;;;1.57;;
9524;SDS011;15940;48.734;9.112;2023-12-22T12:05:02;3.97;;;1.43;;
9524;SDS011;15940;48.734;9.112;2023-12-22T12:07:38;1.80;;;1.00;;
9524;SDS011;15940;48.734;9.112;2023-12-22T12:10:06;3.70;;;1.10;;
9524;SDS011;15940;48.734;9.112;2023-12-22T12:12:33;3.80;;;1.20;;
9524;SDS011;15940;48.734;9.112;2023-12-22T12:15:06;2.03;;;1.30;;
9524;SDS011;15940;48.734;9.112;2023-12-22T12:17:43;5.07;;;1.40;;
9524;SDS011;15940;48.734;9.112;2023-12-22T12:20:11;3.53;;;1.23;;
9524;SDS011;15940;48.734;9.112;2023-12-22T12:22:38;4.27;;;1.40;;
9524;SDS011;15940;48.734;9.112;2023-12-22T12:25:08;2.20;;;1.10;;
9524;SDS011;15940;48.734;9.112;2023-12-22T12:27:36;3.20;;;1.10;;
9524;SDS011;15940;48.734;9.112;2023-12-22T12:30:06;4.33;;;1.20;;
9524;SDS011;15940;48.734;9.112;2023-12-22T12:32:35;2.53;;;1.23;;
9524;SDS011;15940;48.734;9.112;2023-12-22T12:35:02;1.73;;;1.10;;
9524;SDS011;15940;48.734;9.112;2023-12-22T12:37:32;1.93;;;1.03;;
9524;SDS011;15940;48.734;9.112;2023-12-22T12:39:59;2.33;;;1.10;;
9524;SDS011;15940;48.734;9.112;2023-12-22T12:42:29;3.43;;;1.20;;
9524;SDS011;15940;48.734;9.112;2023-12-22T12:44:57;3.90;;;1.10;;
9524;SDS011;15940;48.734;9.112;2023-12-22T12:47:23;2.03;;;1.40;;
9524;SDS011;15940;48.734;9.112;2023-12-22T12:49:56;5.00;;;1.40;;
9524;SDS011;15940;48.734;9.112;2023-12-22T12:52:24;3.87;;;1.37;;
9524;SDS011;15940;48.734;9.112;2023-12-22T12:54:52;3.90;;;1.27;;
9524;SDS011;15940;48.734;9.112;2023-12-22T12:57:19;2.40;;;1.10;;
9524;SDS011;15940;48.734;9.112;2023-12-22T12:59:46;3.53;;;1.30;;
9524;SDS011;15940;48.734;9.112;2023-12-22T13:02:14;3.23;;;1.10;;
9524;SDS011;15940;48.734;9.112;2023-12-22T13:04:41;1.60;;;1.17;;
9524;SDS011;15940;48.734;9.112;2023-12-22T13:07:07;2.73;;;0.87;;
9524;SDS011;15940;48.734;9.112;2023-12-22T13:09:35;1.03;;;0.93;;
9524;SDS011;15940;48.734;9.112;2023-12-22T13:12:04;1.73;;;1.13;;
9524;SDS011;15940;48.734;9.112;2023-12-22T13:14:31;1.93;;;0.90;;
9524;SDS011;15940;48.734;9.112;2023-12-22T13:16:58;1.00;;;0.93;;
9524;SDS011;15940;48.734;9.112;2023-12-22T13:19:25;0.80;;;0.80;;
9524;SDS011;15940;48.734;9.112;2023-12-22T13:21:52;2.60;;;0.90;;
9524;SDS011;15940;48.734;9.112;2023-12-22T13:24:19;1.27;;;1.00;;
9524;SDS011;15940;48.734;9.112;2023-12-22T13:26:46;3.37;;;0.90;;
9524;SDS011;15940;48.734;9.112;2023-12-22T13:29:14;0.67;;;0.67;;
9524;SDS011;15940;48.734;9.112;2023-12-22T13:31:41;2.70;;;0.87;;
9524;SDS011;15940;48.734;9.112;2023-12-22T13:34:10;0.73;;;0.73;;
9524;SDS011;15940;48.734;9.112;2023-12-22T13:36:37;0.50;;;0.50;;
9524;SDS011;15940;48.734;9.112;2023-12-22T13:39:04;0.50;;;0.50;;
9524;SDS011;15940;48.734;9.112;2023-12-22T13:41:32;0.40;;;0.40;;
9524;SDS011;15940;48.734;9.112;2023-12-22T13:44:02;1.10;;;0.57;;
9524;SDS011;15940;48.734;9.112;2023-12-22T13:46:30;0.87;;;0.60;;
9524;SDS011;15940;48.734;9.112;2023-12-22T13:48:57;0.80;;;0.50;;
9524;SDS011;15940;48.734;9.112;2023-12-22T13:51:23;3.10;;;0.53;;
9524;SDS011;15940;48.734;9.112;2023-12-22T13:53:50;0.60;;;0.47;;
9524;SDS011;15940;48.734;9.112;2023-12-22T13:56:17;0.20;;;0.10;;
9524;SDS011;15940;48.734;9.112;2023-12-22T13:58:44;1.00;;;0.77;;
9524;SDS011;15940;48.734;9.112;2023-12-22T14:01:12;0.20;;;0.20;;
9524;SDS011;15940;48.734;9.112;2023-12-22T14:03:41;0.77;;;0.40;;
9524;SDS011;15940;48.734;9.112;2023-12-22T14:06:08;0.23;;;0.23;;
9524;SDS011;15940;48.734;9.112;2023-12-22T14:08:37;0.30;;;0.30;;
9524;SDS011;15940;48.734;9.112;2023-12-22T14:11:05;0.77;;;0.33;;
9524;SDS011;15940;48.734;9.112;2023-12-22T14:13:31;0.50;;;0.40;;
9524;SDS011;15940;48.734;9.112;2023-12-22T14:15:59;0.40;;;0.40;;
9524;SDS011;15940;48.734;9.112;2023-12-22T14:18:26;0.20;;;0.20;;
9524;SDS011;15940;48.734;9.112;2023-12-22T14:20:54;1.40;;;0.30;;
9524;SDS011;15940;48.734;9.112;2023-12-22T14:23:21;0.53;;;0.20;;
9524;SDS011;15940;48.734;9.112;2023-12-22T14:25:47;0.40;;;0.40;;
9524;SDS011;15940;48.734;9.112;2023-12-22T14:28:14;0.30;;;0.30;;
9524;SDS011;15940;48.734;9.112;2023-12-22T14:30:41;0.20;;;0.20;;
9524;SDS011;15940;48.734;9.112;2023-12-22T14:33:08;0.10;;;0.10;;
9524;SDS011;15940;48.734;9.112;2023-12-22T14:35:35;0.20;;;0.20;;
9524;SDS011;15940;48.734;9.112;2023-12-22T14:38:03;0.30;;;0.30;;
9524;SDS011;15940;48.734;9.112;2023-12-22T14:40:30;0.30;;;0.30;;
9524;SDS011;15940;48.734;9.112;2023-12-22T14:42:57;1.30;;;0.50;;
9524;SDS011;15940;48.734;9.112;2023-12-22T14:45:26;0.30;;;0.30;;
9524;SDS011;15940;48.734;9.112;2023-12-22T14:47:53;0.10;;;0.10;;
9524;SDS011;15940;48.734;9.112;2023-12-22T14:50:20;1.70;;;0.30;;
9524;SDS011;15940;48.734;9.112;2023-12-22T14:52:47;0.40;;;0.40;;
9524;SDS011;15940;48.734;9.112;2023-12-22T14:55:15;0.30;;;0.30;;
9524;SDS011;15940;48.734;9.112;2023-12-22T14:57:42;0.40;;;0.40;;
9524;SDS011;15940;48.734;9.112;2023-12-22T15:00:09;0.33;;;0.33;;
9524;SDS011;15940;48.734;9.112;2023-12-22T15:02:36;0.50;;;0.50;;